Time;durP1;ratioP1;P1;durP2;ratioP2;P2;SDS_P1;SDS_P2;PMS_P1;PMS_P2;Temp;Humidity;BMP_temperature;BMP_pressure;BME280_temperature;BME280_humidity;BME280_pressure;Samples;Min_cycle;Max_cycle;Signal;HPM_P1;HPM_P2
2022/09/19 00:01:24;;;;;;;16.03;2.60;;;10.40;99.90;;;;;;5069509;28;20542;-76
2022/09/19 00:03:59;;;;;;;11.03;1.30;;;10.40;99.90;;;;;;5069418;28;20544;-75
2022/09/19 00:06:27;;;;;;;11.03;0.90;;;10.40;99.90;;;;;;5069299;28;20476;-75
2022/09/19 00:08:54;;;;;;;13.23;1.70;;;10.50;99.90;;;;;;5069145;28;20591;-75
2022/09/19 00:11:20;;;;;;;17.63;2.17;;;10.50;99.90;;;;;;5069320;28;20403;-75
2022/09/19 00:13:48;;;;;;;13.83;1.87;;;10.50;99.90;;;;;;5069148;28;20025;-75
2022/09/19 00:16:38;;;;;;;13.73;1.40;;;10.50;99.90;;;;;;5053801;28;20021;-76
2022/09/19 00:19:05;;;;;;;18.37;1.97;;;10.50;99.90;;;;;;5053778;28;20484;-75
2022/09/19 00:21:34;;;;;;;8.43;1.42;;;10.50;99.90;;;;;;5069122;28;20063;-75
2022/09/19 00:26:45;;;;;;;11.53;1.83;;;10.50;99.90;;;;;;5052533;28;20562;-76
2022/09/19 00:29:12;;;;;;;11.93;1.60;;;10.50;99.90;;;;;;5052329;28;20024;-76
2022/09/19 00:31:37;;;;;;;19.10;1.87;;;10.50;99.90;;;;;;5069135;28;20080;-75
2022/09/19 00:34:09;;;;;;;13.23;1.70;;;10.50;99.90;;;;;;5052307;28;20032;-75
2022/09/19 00:36:35;;;;;;;17.70;1.60;;;10.40;99.90;;;;;;5068810;28;20013;-75
2022/09/19 00:39:01;;;;;;;14.97;1.90;;;10.50;99.90;;;;;;5052567;28;20086;-75
2022/09/19 00:41:27;;;;;;;12.50;1.33;;;10.50;99.90;;;;;;5052046;28;20358;-75
2022/09/19 00:43:59;;;;;;;13.50;1.67;;;10.50;99.90;;;;;;5052119;28;20094;-76
2022/09/19 00:46:28;;;;;;;14.50;1.70;;;10.50;99.90;;;;;;5053329;28;20028;-76
2022/09/19 00:49:14;;;;;;;12.50;1.40;;;10.50;99.90;;;;;;5068604;28;20027;-76
2022/09/19 00:51:49;;;;;;;14.70;1.83;;;10.50;99.90;;;;;;5053080;28;20510;-74
2022/09/19 00:54:23;;;;;;;17.87;2.00;;;10.50;99.90;;;;;;5068728;28;20021;-76
2022/09/19 00:56:52;;;;;;;12.77;1.17;;;10.50;99.90;;;;;;5053161;28;20468;-82
2022/09/19 00:59:21;;;;;;;10.53;1.37;;;10.60;99.90;;;;;;5053144;28;20025;-81
2022/09/19 01:01:48;;;;;;;13.80;1.30;;;10.60;99.90;;;;;;5053115;28;20025;-76
2022/09/19 01:04:21;;;;;;;14.10;1.77;;;10.60;99.90;;;;;;5052037;28;20025;-75
2022/09/19 01:07:13;;;;;;;8.83;1.10;;;10.60;99.90;;;;;;5068249;28;20041;-76
2022/09/19 01:10:03;;;;;;;12.10;1.67;;;10.60;99.90;;;;;;5053031;28;20032;-74
2022/09/19 01:12:47;;;;;;;15.50;1.10;;;10.60;99.90;;;;;;5068451;28;20371;-75
2022/09/19 01:15:32;;;;;;;9.37;1.47;;;10.60;99.90;;;;;;5068455;28;20032;-75
2022/09/19 01:18:00;;;;;;;14.20;1.67;;;10.60;99.90;;;;;;5053036;28;20361;-75
2022/09/19 01:24:07;;;;;;;15.25;1.33;;;10.70;99.90;;;;;;5052928;28;20100;-75
2022/09/19 01:27:09;;;;;;;17.70;2.00;;;10.70;99.90;;;;;;5052827;28;20456;-75
2022/09/19 01:30:01;;;;;;;12.82;1.45;;;10.80;99.90;;;;;;5068343;28;20033;-75
2022/09/19 01:32:33;;;;;;;17.30;1.70;;;10.90;99.90;;;;;;5052417;28;20040;-75
2022/09/19 01:35:05;;;;;;;14.10;2.53;;;10.80;99.90;;;;;;5068214;28;20032;-76
2022/09/19 01:37:36;;;;;;;13.53;1.50;;;10.90;99.90;;;;;;5068277;28;20033;-75
2022/09/19 01:40:05;;;;;;;8.88;1.33;;;11.00;99.90;;;;;;5068259;28;20053;-75
2022/09/19 01:42:30;;;;;;;11.65;1.52;;;11.00;99.90;;;;;;5068141;28;20032;-74
2022/09/19 01:44:56;;;;;;;14.27;1.50;;;11.10;99.90;;;;;;5051504;28;20025;-76
2022/09/19 01:47:31;;;;;;;11.45;1.10;;;11.20;99.90;;;;;;5051186;28;20113;-77
2022/09/19 01:50:31;;;;;;;14.05;1.55;;;11.20;99.90;;;;;;5068093;28;20503;-74
2022/09/19 01:53:19;;;;;;;9.95;1.23;;;11.20;99.90;;;;;;5068070;28;20013;-76
2022/09/19 01:56:06;;;;;;;8.95;1.00;;;11.20;99.90;;;;;;5071652;28;20116;-75
2022/09/19 01:58:46;;;;;;;11.13;1.08;;;11.20;99.90;;;;;;5056326;28;20104;-75
2022/09/19 02:01:19;;;;;;;12.73;1.45;;;11.20;99.90;;;;;;5056424;28;20017;-75
2022/09/19 02:04:23;;;;;;;6.93;1.75;;;11.30;99.90;;;;;;5060806;28;20130;-75
2022/09/19 02:06:58;;;;;;;12.13;1.00;;;11.20;99.90;;;;;;5012588;28;20119;-82
2022/09/19 02:09:45;;;;;;;10.73;1.23;;;11.20;99.90;;;;;;5047167;28;20061;-82
2022/09/19 02:12:16;;;;;;;13.10;1.17;;;11.20;99.90;;;;;;5055778;28;20028;-81
2022/09/19 02:14:50;;;;;;;12.90;1.10;;;11.20;99.90;;;;;;5056258;28;20032;-81
2022/09/19 02:17:24;;;;;;;13.38;1.95;;;11.20;99.90;;;;;;5038426;28;20040;-81
2022/09/19 02:20:10;;;;;;;14.23;1.45;;;11.20;99.90;;;;;;5056335;28;20025;-81
2022/09/19 02:22:41;;;;;;;13.15;1.23;;;11.20;99.90;;;;;;5056308;28;20028;-82
2022/09/19 02:25:12;;;;;;;12.30;1.25;;;11.20;99.90;;;;;;5055179;28;20100;-82
2022/09/19 02:27:50;;;;;;;10.45;1.13;;;11.20;99.90;;;;;;5055028;28;20021;-82
2022/09/19 02:30:20;;;;;;;9.98;1.35;;;11.20;99.90;;;;;;5054681;28;20109;-82
2022/09/19 02:32:47;;;;;;;15.52;1.33;;;11.30;99.90;;;;;;5054839;28;20028;-81
2022/09/19 02:35:36;;;;;;;10.20;1.40;;;11.20;99.90;;;;;;5054532;28;20437;-82
2022/09/19 02:38:42;;;;;;;14.55;1.98;;;11.30;99.90;;;;;;5025183;28;20031;-82
2022/09/19 02:41:38;;;;;;;16.27;1.63;;;11.30;99.90;;;;;;5069683;28;20047;-82
2022/09/19 02:44:23;;;;;;;13.40;1.58;;;11.30;99.90;;;;;;5071077;28;20063;-82
2022/09/19 02:46:57;;;;;;;7.47;1.10;;;11.30;99.90;;;;;;5054533;28;20048;-82
2022/09/19 02:49:47;;;;;;;11.35;1.13;;;11.30;99.90;;;;;;5054118;28;20483;-81
2022/09/19 02:52:28;;;;;;;12.23;1.38;;;11.40;99.90;;;;;;5054104;28;20021;-82
2022/09/19 02:55:00;;;;;;;16.00;1.67;;;11.40;99.90;;;;;;5055419;28;20017;-82
2022/09/19 02:57:29;;;;;;;9.68;1.10;;;11.40;99.90;;;;;;5064696;28;20024;-85
2022/09/19 02:59:58;;;;;;;13.45;0.82;;;11.40;99.90;;;;;;5075769;28;20492;-82
2022/09/19 03:02:56;;;;;;;12.60;1.00;;;11.50;99.90;;;;;;5075004;28;20024;-82
2022/09/19 03:05:26;;;;;;;21.20;2.88;;;11.50;99.90;;;;;;5073425;28;20051;-83
2022/09/19 03:08:09;;;;;;;12.38;1.52;;;11.50;99.90;;;;;;5075080;28;20048;-83
2022/09/19 03:10:38;;;;;;;11.50;1.17;;;11.50;99.90;;;;;;5074205;28;20449;-83
2022/09/19 03:13:06;;;;;;;14.18;1.52;;;11.50;99.90;;;;;;5073896;28;20444;-77
2022/09/19 03:15:55;;;;;;;12.20;1.25;;;11.60;99.90;;;;;;5074090;28;20028;-77
2022/09/19 03:18:22;;;;;;;10.15;0.85;;;11.60;99.90;;;;;;5075316;28;20028;-77
2022/09/19 03:20:53;;;;;;;8.15;0.90;;;11.60;99.90;;;;;;5075490;28;20031;-75
2022/09/19 03:23:25;;;;;;;14.50;1.50;;;11.60;99.90;;;;;;5073888;28;20158;-77
2022/09/19 03:25:51;;;;;;;10.55;1.05;;;11.70;99.90;;;;;;5074935;28;20033;-77
2022/09/19 03:28:19;;;;;;;9.38;0.95;;;11.60;99.90;;;;;;5040578;28;20077;-78
2022/09/19 03:30:46;;;;;;;6.80;0.93;;;11.70;99.90;;;;;;5041026;28;20536;-77
2022/09/19 03:33:15;;;;;;;16.98;1.70;;;11.70;99.90;;;;;;5056925;28;20473;-84
2022/09/19 03:35:42;;;;;;;9.90;1.08;;;11.70;99.90;;;;;;5057365;28;20488;-84
2022/09/19 03:38:08;;;;;;;11.60;1.38;;;11.70;99.90;;;;;;5073508;28;20476;-84
2022/09/19 03:40:34;;;;;;;12.07;1.08;;;11.60;99.90;;;;;;5056935;28;20116;-84
2022/09/19 03:43:00;;;;;;;11.90;1.10;;;11.70;99.90;;;;;;5073324;28;20063;-83
2022/09/19 03:45:26;;;;;;;15.63;1.25;;;11.70;99.90;;;;;;5073234;28;20028;-84
2022/09/19 03:47:52;;;;;;;15.38;2.15;;;11.70;99.90;;;;;;5056558;28;20123;-81
2022/09/19 03:50:18;;;;;;;10.38;1.45;;;11.60;99.90;;;;;;5056817;28;20086;-82
2022/09/19 03:52:47;;;;;;;11.60;1.30;;;11.60;99.80;;;;;;5056446;28;20464;-82
2022/09/19 03:55:13;;;;;;;10.63;1.10;;;11.60;99.80;;;;;;5073267;28;20350;-82
2022/09/19 03:57:39;;;;;;;11.48;0.90;;;11.50;99.80;;;;;;5073010;28;20032;-81
2022/09/19 04:00:05;;;;;;;14.35;1.77;;;11.50;99.80;;;;;;5073015;28;20029;-81
2022/09/19 04:02:32;;;;;;;11.30;1.80;;;11.50;99.80;;;;;;5065689;28;20086;-76
2022/09/19 04:04:58;;;;;;;13.82;1.08;;;11.50;99.80;;;;;;5052638;28;20033;-84
2022/09/19 04:07:27;;;;;;;14.07;1.50;;;11.40;99.80;;;;;;5052243;28;20095;-82
2022/09/19 04:09:54;;;;;;;10.50;1.60;;;11.40;99.80;;;;;;5052675;28;20070;-80
2022/09/19 04:12:21;;;;;;;9.98;1.48;;;11.50;99.80;;;;;;5054132;28;20029;-80
2022/09/19 04:14:48;;;;;;;11.63;1.67;;;11.40;99.80;;;;;;5052850;28;20385;-80
2022/09/19 04:17:14;;;;;;;12.30;1.15;;;11.30;99.80;;;;;;5052633;28;20108;-81
2022/09/19 04:19:42;;;;;;;8.85;1.20;;;11.40;99.90;;;;;;5053846;28;20036;-80
2022/09/19 04:22:10;;;;;;;11.18;1.70;;;11.40;99.90;;;;;;5068998;28;20120;-81
2022/09/19 04:24:39;;;;;;;13.18;1.55;;;11.40;99.90;;;;;;5052710;28;20424;-83
2022/09/19 04:27:12;;;;;;;11.73;1.20;;;11.40;99.90;;;;;;5052456;28;20036;-80
2022/09/19 04:29:38;;;;;;;21.55;2.03;;;11.40;99.90;;;;;;5057512;28;20027;-81
2022/09/19 04:32:04;;;;;;;13.20;1.80;;;11.40;99.90;;;;;;5076985;28;20029;-81
2022/09/19 04:34:30;;;;;;;10.25;1.08;;;11.50;99.90;;;;;;5068539;28;20130;-83
2022/09/19 04:36:57;;;;;;;12.35;1.20;;;11.50;99.90;;;;;;5052272;28;20024;-82
2022/09/19 04:39:24;;;;;;;12.65;1.13;;;11.50;99.90;;;;;;5068962;28;20029;-81
2022/09/19 04:41:53;;;;;;;10.10;1.23;;;11.50;99.90;;;;;;5052107;28;20039;-75
2022/09/19 04:44:28;;;;;;;8.02;0.88;;;11.50;99.90;;;;;;5052168;28;20098;-75
2022/09/19 04:46:54;;;;;;;9.07;1.00;;;11.60;99.90;;;;;;5053188;28;20538;-75
2022/09/19 04:49:20;;;;;;;11.65;1.08;;;11.60;99.90;;;;;;5052151;28;20025;-75
2022/09/19 04:51:45;;;;;;;15.73;1.20;;;11.60;99.90;;;;;;5053258;28;20029;-75
2022/09/19 04:54:12;;;;;;;9.52;1.25;;;11.70;99.90;;;;;;5068618;28;20033;-75
2022/09/19 04:56:38;;;;;;;9.63;0.98;;;11.70;99.90;;;;;;5051797;28;20025;-75
2022/09/19 04:59:04;;;;;;;9.52;1.40;;;11.70;99.90;;;;;;5053097;28;20037;-75
2022/09/19 05:01:30;;;;;;;11.57;1.38;;;11.70;99.90;;;;;;5052042;28;20037;-75
2022/09/19 05:03:57;;;;;;;8.65;1.38;;;11.70;99.90;;;;;;5068385;28;20033;-75
2022/09/19 05:06:23;;;;;;;7.45;0.93;;;11.70;99.90;;;;;;5064756;28;20025;-74
2022/09/19 05:08:50;;;;;;;11.00;0.98;;;11.70;99.90;;;;;;5069084;28;20057;-76
2022/09/19 05:11:21;;;;;;;11.50;1.10;;;11.70;99.90;;;;;;5064855;28;20487;-75
2022/09/19 05:13:48;;;;;;;7.18;0.90;;;11.70;99.90;;;;;;5062688;28;20020;-76
2022/09/19 05:16:15;;;;;;;10.02;0.98;;;11.70;99.90;;;;;;5067950;28;20499;-74
2022/09/19 05:18:41;;;;;;;8.20;0.85;;;11.70;99.90;;;;;;5066473;28;20025;-76
2022/09/19 05:21:10;;;;;;;9.00;1.17;;;11.60;99.90;;;;;;5065721;28;20033;-76
2022/09/19 05:23:37;;;;;;;10.32;1.38;;;11.60;99.90;;;;;;5059727;28;20633;-73
2022/09/19 05:26:08;;;;;;;6.57;0.80;;;11.60;99.90;;;;;;5053762;28;20044;-75
2022/09/19 05:28:35;;;;;;;11.00;1.58;;;11.60;99.90;;;;;;5053391;28;20036;-75
2022/09/19 05:31:05;;;;;;;11.88;1.20;;;11.60;99.90;;;;;;5051391;28;20036;-75
2022/09/19 05:33:32;;;;;;;7.57;1.00;;;11.60;99.90;;;;;;5074404;28;20032;-75
2022/09/19 05:36:00;;;;;;;11.48;1.35;;;11.60;99.90;;;;;;5037593;28;20021;-75
2022/09/19 05:38:26;;;;;;;7.60;1.00;;;11.70;99.90;;;;;;5055767;28;20025;-75
2022/09/19 05:40:53;;;;;;;9.77;1.00;;;11.70;99.90;;;;;;5056658;28;20427;-74
2022/09/19 05:43:19;;;;;;;8.85;1.13;;;11.70;99.90;;;;;;5028631;28;20064;-74
2022/09/19 05:45:44;;;;;;;8.10;1.20;;;11.70;99.90;;;;;;5055701;28;20508;-74
2022/09/19 05:48:10;;;;;;;10.23;1.15;;;11.80;99.90;;;;;;5062878;28;20028;-74
2022/09/19 05:50:36;;;;;;;10.95;1.77;;;11.80;99.90;;;;;;5049250;28;20120;-76
2022/09/19 05:55:49;;;;;;;11.95;1.30;;;11.90;99.90;;;;;;5057852;28;20027;-77
2022/09/19 05:58:17;;;;;;;15.27;1.25;;;11.90;99.90;;;;;;5051361;28;20090;-75
2022/09/19 06:00:42;;;;;;;8.95;0.90;;;12.00;99.90;;;;;;5058824;28;20549;-75
2022/09/19 06:03:14;;;;;;;16.40;1.20;;;12.00;99.90;;;;;;5075121;28;20033;-76
2022/09/19 06:05:43;;;;;;;6.50;0.85;;;12.00;99.90;;;;;;5074381;28;20077;-75
2022/09/19 06:08:08;;;;;;;6.70;0.90;;;12.00;99.90;;;;;;5058483;28;20048;-76
2022/09/19 06:10:39;;;;;;;9.63;1.00;;;12.10;99.90;;;;;;5056912;28;20031;-75
2022/09/19 06:13:06;;;;;;;6.55;1.05;;;12.00;99.90;;;;;;5069973;28;20069;-76
2022/09/19 06:15:33;;;;;;;15.80;1.40;;;12.00;99.90;;;;;;5074553;28;20116;-75
2022/09/19 06:17:59;;;;;;;10.85;1.60;;;12.00;99.90;;;;;;5074623;28;20111;-75
2022/09/19 06:20:25;;;;;;;13.07;1.42;;;12.00;99.90;;;;;;5075533;28;20098;-76
2022/09/19 06:23:02;;;;;;;14.05;1.52;;;12.10;99.90;;;;;;5091227;28;20127;-76
2022/09/19 06:25:32;;;;;;;7.65;0.95;;;11.90;99.90;;;;;;5074505;28;20388;-75
2022/09/19 06:28:00;;;;;;;10.43;1.30;;;11.90;99.90;;;;;;5075113;28;20029;-76
2022/09/19 06:30:27;;;;;;;11.70;1.85;;;11.90;99.90;;;;;;5074176;28;20016;-76
2022/09/19 06:32:53;;;;;;;14.95;1.67;;;11.90;99.90;;;;;;5075781;28;20091;-76
2022/09/19 06:35:21;;;;;;;12.43;1.30;;;11.90;99.90;;;;;;5055822;28;20032;-76
2022/09/19 06:37:47;;;;;;;17.58;1.60;;;11.90;99.90;;;;;;5063777;28;20150;-77
2022/09/19 06:40:13;;;;;;;9.10;1.42;;;11.90;99.90;;;;;;5063572;28;20503;-77
2022/09/19 06:42:40;;;;;;;10.05;1.40;;;11.90;99.90;;;;;;5054347;28;20025;-77
2022/09/19 06:45:07;;;;;;;12.70;1.83;;;12.00;99.90;;;;;;5064919;28;20028;-76
2022/09/19 06:47:33;;;;;;;12.55;1.83;;;11.90;99.90;;;;;;5067487;28;20108;-77
2022/09/19 06:50:00;;;;;;;13.57;2.00;;;12.00;99.90;;;;;;5075587;28;20044;-76
2022/09/19 06:52:26;;;;;;;10.05;1.17;;;12.00;99.90;;;;;;5091010;28;20035;-77
2022/09/19 06:54:52;;;;;;;14.23;1.55;;;12.00;99.90;;;;;;5073186;28;20090;-76
2022/09/19 06:57:18;;;;;;;8.30;1.00;;;12.00;99.90;;;;;;5059478;28;20476;-77
2022/09/19 06:59:43;;;;;;;9.75;1.52;;;12.10;99.90;;;;;;5053993;28;20115;-76
2022/09/19 07:02:11;;;;;;;11.32;1.23;;;12.10;99.90;;;;;;5053996;28;20032;-75
2022/09/19 07:04:36;;;;;;;12.15;1.50;;;12.20;99.90;;;;;;5053980;28;20075;-76
2022/09/19 07:07:03;;;;;;;13.65;1.95;;;12.20;99.90;;;;;;5052961;28;20440;-76
2022/09/19 07:09:29;;;;;;;11.90;1.23;;;12.30;99.90;;;;;;5053900;28;20067;-82
2022/09/19 07:11:56;;;;;;;19.83;3.03;;;12.30;99.90;;;;;;5053766;28;20025;-80
2022/09/19 07:14:23;;;;;;;9.00;0.90;;;12.40;99.90;;;;;;5037373;28;20079;-81
2022/09/19 07:16:49;;;;;;;8.75;0.80;;;12.40;99.90;;;;;;5072217;28;20060;-80
2022/09/19 07:19:15;;;;;;;14.23;1.25;;;12.50;99.90;;;;;;5065862;28;20064;-81
2022/09/19 07:21:40;;;;;;;7.80;1.00;;;12.60;99.90;;;;;;5079177;28;20377;-81
2022/09/19 07:24:07;;;;;;;9.15;1.45;;;12.70;99.90;;;;;;5052982;28;20036;-80
2022/09/19 07:26:33;;;;;;;9.10;1.00;;;12.80;99.90;;;;;;5066819;28;20025;-80
2022/09/19 07:28:59;;;;;;;13.18;1.40;;;12.90;99.90;;;;;;5060913;28;20072;-81
2022/09/19 07:31:26;;;;;;;13.55;1.63;;;13.00;99.90;;;;;;5064830;28;20072;-82
2022/09/19 07:33:53;;;;;;;6.00;0.70;;;13.00;99.90;;;;;;5074339;28;20040;-81
2022/09/19 07:36:21;;;;;;;9.05;1.20;;;13.10;99.90;;;;;;5047895;28;20381;-80
2022/09/19 07:38:48;;;;;;;8.10;1.17;;;13.30;99.90;;;;;;5054437;28;20155;-81
2022/09/19 07:41:14;;;;;;;9.15;1.10;;;13.40;99.90;;;;;;5054721;28;20156;-82
2022/09/19 07:43:40;;;;;;;9.35;1.20;;;13.60;99.90;;;;;;5053492;28;20055;-74
2022/09/19 07:46:06;;;;;;;10.73;1.13;;;13.60;99.90;;;;;;5052923;28;20469;-74
2022/09/19 07:48:32;;;;;;;7.28;1.00;;;13.70;99.90;;;;;;5071665;28;20036;-74
2022/09/19 07:50:57;;;;;;;12.82;1.25;;;13.80;99.70;;;;;;5061318;28;20036;-74
2022/09/19 07:53:23;;;;;;;7.13;0.80;;;13.90;99.40;;;;;;5055506;28;20477;-74
2022/09/19 07:55:51;;;;;;;8.02;1.33;;;13.90;99.00;;;;;;5064069;28;20472;-76
2022/09/19 07:58:18;;;;;;;10.13;0.82;;;14.00;98.90;;;;;;5052831;28;20051;-80
2022/09/19 08:00:45;;;;;;;7.45;1.27;;;14.00;98.70;;;;;;5066446;28;20120;-80
2022/09/19 08:03:13;;;;;;;8.90;0.90;;;14.00;98.60;;;;;;5073126;28;20025;-81
2022/09/19 08:05:41;;;;;;;11.07;1.13;;;14.00;98.10;;;;;;5074192;28;20439;-80
2022/09/19 08:08:10;;;;;;;9.10;1.35;;;14.00;97.70;;;;;;5072335;28;20445;-80
2022/09/19 08:10:37;;;;;;;10.85;0.90;;;13.90;97.80;;;;;;5074152;28;20021;-80
2022/09/19 08:13:04;;;;;;;10.13;1.42;;;14.00;97.80;;;;;;5089272;28;20457;-80
2022/09/19 08:15:35;;;;;;;7.97;1.02;;;14.10;97.60;;;;;;5067659;28;20040;-82
2022/09/19 08:18:03;;;;;;;9.90;1.30;;;14.10;97.60;;;;;;5036116;28;20481;-80
2022/09/19 08:20:31;;;;;;;11.18;1.25;;;14.20;97.40;;;;;;5053641;28;20545;-80
2022/09/19 08:22:59;;;;;;;7.78;1.45;;;14.30;97.30;;;;;;5052900;28;20385;-80
2022/09/19 08:25:26;;;;;;;7.30;0.80;;;14.40;97.20;;;;;;5053364;28;20025;-80
2022/09/19 08:27:52;;;;;;;13.18;1.20;;;14.50;97.00;;;;;;5053516;28;20025;-81
2022/09/19 08:30:19;;;;;;;10.57;0.90;;;14.50;96.60;;;;;;5052534;28;20021;-80
2022/09/19 08:32:49;;;;;;;18.25;1.33;;;14.60;96.30;;;;;;5053657;28;20025;-82
2022/09/19 08:35:16;;;;;;;9.63;0.75;;;14.60;96.30;;;;;;5058022;28;20023;-82
2022/09/19 08:37:43;;;;;;;9.32;0.82;;;14.60;96.20;;;;;;5072211;28;20029;-80
2022/09/19 08:40:30;;;;;;;10.20;1.20;;;14.70;96.10;;;;;;5072691;28;20032;-81
2022/09/19 08:43:05;;;;;;;10.63;1.35;;;14.70;96.10;;;;;;5040623;28;20045;-81
2022/09/19 08:46:06;;;;;;;9.07;1.60;;;14.70;95.80;;;;;;5052361;28;20035;-81
2022/09/19 08:48:56;;;;;;;9.38;0.90;;;14.80;95.70;;;;;;5068676;28;20025;-80
2022/09/19 08:51:44;;;;;;;10.15;1.00;;;14.80;95.70;;;;;;5066710;28;20117;-81
2022/09/19 08:54:12;;;;;;;9.18;1.30;;;15.00;95.70;;;;;;5067460;28;20147;-81
2022/09/19 08:56:39;;;;;;;9.50;0.85;;;15.10;95.40;;;;;;5062132;28;20055;-80
2022/09/19 08:59:10;;;;;;;13.00;1.00;;;15.30;95.20;;;;;;5058322;28;20029;-81
2022/09/19 09:01:39;;;;;;;4.47;0.77;;;15.30;94.70;;;;;;5058674;28;20021;-80
2022/09/19 09:04:25;;;;;;;9.27;0.73;;;15.40;94.20;;;;;;5051497;28;20025;-82
2022/09/19 09:07:09;;;;;;;5.97;0.70;;;15.60;93.60;;;;;;5053015;28;20048;-80
2022/09/19 09:09:56;;;;;;;7.63;0.60;;;15.70;93.50;;;;;;5052975;28;20155;-81
2022/09/19 09:12:32;;;;;;;9.40;0.95;;;15.70;92.30;;;;;;5051724;28;20047;-82
2022/09/19 09:15:34;;;;;;;10.80;1.08;;;15.70;90.90;;;;;;5056458;28;20029;-80
2022/09/19 09:18:06;;;;;;;8.07;1.17;;;15.60;90.50;;;;;;5071906;28;20442;-81
2022/09/19 09:20:57;;;;;;;8.40;1.05;;;15.60;89.90;;;;;;5071860;28;20031;-83
2022/09/19 09:23:31;;;;;;;9.75;1.38;;;15.70;89.60;;;;;;5071357;28;20032;-81
2022/09/19 09:26:06;;;;;;;5.38;0.90;;;15.70;90.10;;;;;;5071578;28;20074;-82
2022/09/19 09:29:12;;;;;;;9.90;0.80;;;15.70;90.10;;;;;;5068243;28;20566;-81
2022/09/19 09:31:46;;;;;;;4.82;0.60;;;15.80;90.20;;;;;;5064435;28;20103;-80
2022/09/19 09:34:14;;;;;;;;;;;15.90;90.50;;;;;;5066370;28;20054;-82
2022/09/19 09:36:50;;;;;;;6.50;1.10;;;16.00;90.50;;;;;;5071993;28;19905;-83
2022/09/19 09:39:30;;;;;;;5.85;1.13;;;16.10;90.40;;;;;;5072782;28;20538;-80
2022/09/19 09:42:00;;;;;;;5.22;0.55;;;16.20;90.10;;;;;;5071063;28;20021;-82
2022/09/19 09:44:44;;;;;;;9.88;0.70;;;16.30;89.60;;;;;;5068539;28;20037;-82
2022/09/19 09:47:34;;;;;;;5.53;0.70;;;16.30;88.90;;;;;;5051663;28;20534;-81
2022/09/19 09:50:36;;;;;;;5.63;0.70;;;16.40;89.00;;;;;;5052676;28;20053;-81
2022/09/19 09:53:28;;;;;;;8.13;0.80;;;16.50;88.50;;;;;;5051647;28;20029;-82
2022/09/19 09:56:14;;;;;;;6.50;0.70;;;16.60;88.10;;;;;;5051645;28;20100;-78
2022/09/19 09:59:04;;;;;;;4.53;0.50;;;16.70;85.40;;;;;;5053156;28;20043;-77
2022/09/19 10:04:25;;;;;;;4.97;0.50;;;16.80;83.10;;;;;;5056698;28;20066;-77
2022/09/19 10:07:20;;;;;;;5.25;0.65;;;16.90;81.80;;;;;;5058451;28;20109;-76
2022/09/19 10:10:03;;;;;;;2.97;0.43;;;16.80;81.50;;;;;;5060597;28;20036;-76
2022/09/19 10:12:43;;;;;;;3.58;0.50;;;16.80;81.70;;;;;;5058151;28;20036;-83
2022/09/19 10:15:16;;;;;;;3.83;0.60;;;16.80;82.00;;;;;;5086220;28;20473;-83
2022/09/19 10:17:47;;;;;;;5.03;0.70;;;17.20;83.60;;;;;;5066288;28;20039;-84
2022/09/19 10:20:22;;;;;;;4.72;0.70;;;17.90;83.60;;;;;;5067200;28;20063;-86
2022/09/19 10:22:49;;;;;;;2.55;0.40;;;18.40;81.80;;;;;;5072179;28;20112;-83
2022/09/19 10:25:16;;;;;;;3.85;0.52;;;18.70;79.50;;;;;;5038922;28;20078;-86
2022/09/19 10:27:45;;;;;;;3.90;0.60;;;18.90;79.50;;;;;;5042269;28;20039;-86
2022/09/19 10:30:16;;;;;;;4.03;0.55;;;19.20;77.40;;;;;;5066230;28;20103;-84
2022/09/19 10:32:43;;;;;;;4.22;0.75;;;19.50;76.70;;;;;;5075164;28;20028;-84
2022/09/19 10:35:32;;;;;;;6.57;0.85;;;19.40;73.70;;;;;;5058662;28;20013;-85
2022/09/19 10:38:07;;;;;;;2.90;0.43;;;19.20;72.20;;;;;;5069567;28;20024;-85
2022/09/19 10:40:33;;;;;;;5.95;0.50;;;19.00;71.90;;;;;;5064703;28;20476;-84
2022/09/19 10:43:01;;;;;;;2.33;0.45;;;18.70;71.90;;;;;;5039990;28;20023;-84
2022/09/19 10:45:32;;;;;;;3.03;0.35;;;18.50;72.00;;;;;;5065952;28;20036;-84
2022/09/19 10:48:08;;;;;;;3.92;0.50;;;18.30;72.50;;;;;;5073540;28;20029;-85
2022/09/19 10:50:34;;;;;;;4.18;0.30;;;18.10;73.60;;;;;;5067026;28;20045;-83
2022/09/19 10:53:04;;;;;;;3.10;0.43;;;17.80;74.10;;;;;;5045572;28;20057;-84
2022/09/19 10:55:35;;;;;;;3.88;0.50;;;17.60;74.30;;;;;;5072012;28;20016;-83
2022/09/19 10:58:04;;;;;;;3.50;0.47;;;17.40;75.10;;;;;;5058125;28;20108;-87
2022/09/19 11:00:31;;;;;;;5.70;0.45;;;17.20;75.90;;;;;;5069574;28;20025;-84
2022/09/19 11:03:05;;;;;;;4.78;0.50;;;17.10;76.40;;;;;;5059654;28;20498;-84
2022/09/19 11:05:36;;;;;;;3.00;0.50;;;17.00;77.00;;;;;;5085124;28;20082;-83
2022/09/19 11:08:06;;;;;;;4.50;0.50;;;16.90;77.60;;;;;;5065388;28;20518;-87
2022/09/19 11:10:38;;;;;;;7.50;0.90;;;16.90;78.00;;;;;;5064186;28;20103;-85
2022/09/19 11:13:22;;;;;;;2.13;0.50;;;16.80;78.20;;;;;;5069164;28;20016;-86
2022/09/19 11:16:35;;;;;;;2.83;0.32;;;16.70;77.40;;;;;;5061090;28;20397;-84
2022/09/19 11:19:19;;;;;;;2.05;0.40;;;16.70;77.40;;;;;;5065527;28;20040;-87
2022/09/19 11:21:54;;;;;;;3.80;0.40;;;16.60;77.10;;;;;;5064429;28;20036;-84
2022/09/19 11:24:49;;;;;;;5.60;0.63;;;16.50;77.50;;;;;;5065638;28;20028;-85
2022/09/19 11:27:53;;;;;;;4.95;0.52;;;16.50;79.90;;;;;;5060017;28;20078;-83
2022/09/19 11:30:24;;;;;;;5.35;0.68;;;16.70;81.30;;;;;;5081228;28;20108;-84
2022/09/19 11:33:21;;;;;;;5.18;0.70;;;17.40;84.10;;;;;;5061868;28;20354;-86
2022/09/19 11:36:15;;;;;;;5.18;0.60;;;18.50;84.00;;;;;;5071845;28;20028;-86
2022/09/19 11:39:03;;;;;;;4.28;0.70;;;19.40;81.30;;;;;;5065634;28;20028;-84
2022/09/19 11:41:43;;;;;;;5.25;0.60;;;20.20;78.90;;;;;;5072721;28;20078;-84
2022/09/19 11:44:40;;;;;;;6.32;0.80;;;21.00;75.60;;;;;;5060656;28;20021;-83
2022/09/19 11:47:16;;;;;;;6.55;0.80;;;21.60;72.00;;;;;;5069020;28;20028;-86
2022/09/19 11:50:03;;;;;;;4.32;0.63;;;21.90;69.10;;;;;;5058071;28;20021;-82
2022/09/19 11:52:55;;;;;;;5.28;0.38;;;21.80;68.00;;;;;;5075844;28;20052;-83
2022/09/19 11:55:30;;;;;;;2.05;0.30;;;21.90;67.50;;;;;;5069171;28;20503;-83
2022/09/19 11:58:08;;;;;;;2.97;0.45;;;22.10;67.90;;;;;;5069505;28;20480;-85
2022/09/19 12:00:46;;;;;;;1.88;0.43;;;22.60;67.70;;;;;;5081065;28;20542;-84
2022/09/19 12:03:11;;;;;;;2.58;0.40;;;22.90;66.60;;;;;;5065536;28;20053;-81
2022/09/19 12:06:15;;;;;;;5.55;0.47;;;23.10;65.70;;;;;;5065976;28;20060;-84
2022/09/19 12:09:09;;;;;;;3.33;0.50;;;23.40;63.90;;;;;;5065085;28;20040;-83
2022/09/19 12:11:43;;;;;;;2.85;0.50;;;23.90;62.50;;;;;;5063890;28;20028;-84
2022/09/19 12:14:19;;;;;;;3.28;0.43;;;24.40;57.40;;;;;;5053624;28;20029;-85
2022/09/19 12:16:50;;;;;;;1.88;0.20;;;24.70;54.00;;;;;;5056508;28;20028;-82
2022/09/19 12:19:24;;;;;;;1.00;0.20;;;24.80;53.40;;;;;;5054387;28;20036;-82
2022/09/19 12:22:26;;;;;;;3.88;0.28;;;25.00;51.80;;;;;;5058529;28;20036;-82
2022/09/19 12:25:19;;;;;;;3.20;0.30;;;25.10;51.20;;;;;;5044522;28;20429;-83
2022/09/19 12:27:51;;;;;;;3.35;0.40;;;24.70;49.00;;;;;;5056802;28;20040;-84
2022/09/19 12:30:20;;;;;;;2.55;0.35;;;23.80;49.70;;;;;;5083313;28;20440;-85
2022/09/19 12:32:56;;;;;;;3.10;0.30;;;22.90;51.10;;;;;;5070906;28;20033;-87
2022/09/19 12:35:36;;;;;;;4.10;0.47;;;22.20;52.80;;;;;;5060208;28;20070;-84
2022/09/19 12:38:40;;;;;;;4.57;0.43;;;21.40;54.30;;;;;;5067718;28;20059;-84
2022/09/19 12:41:24;;;;;;;4.65;0.68;;;21.00;56.00;;;;;;5052621;28;20029;-82
2022/09/19 12:44:13;;;;;;;2.63;0.43;;;21.50;56.60;;;;;;5068045;28;20025;-84
2022/09/19 12:47:00;;;;;;;5.03;0.40;;;22.10;56.20;;;;;;5057261;28;20024;-85
2022/09/19 12:49:36;;;;;;;2.88;0.40;;;22.30;55.50;;;;;;5057572;28;20107;-86
2022/09/19 12:52:08;;;;;;;6.97;0.50;;;22.10;56.00;;;;;;5065750;28;20017;-83
2022/09/19 12:54:37;;;;;;;3.55;0.40;;;22.10;56.60;;;;;;5068404;28;20051;-82
2022/09/19 12:57:12;;;;;;;1.30;0.30;;;22.20;57.20;;;;;;5071673;28;20027;-82
2022/09/19 12:59:39;;;;;;;3.25;0.50;;;22.20;56.60;;;;;;5072049;28;20021;-81
2022/09/19 13:02:21;;;;;;;5.07;0.60;;;22.00;56.70;;;;;;5070372;28;21039;-83
2022/09/19 13:05:07;;;;;;;3.10;0.43;;;22.10;58.10;;;;;;5057951;28;20056;-85
2022/09/19 13:07:36;;;;;;;2.42;0.40;;;22.70;58.40;;;;;;5059291;28;20041;-84
2022/09/19 13:10:10;;;;;;;2.55;0.43;;;23.30;57.40;;;;;;5063259;28;20025;-83
2022/09/19 13:12:50;;;;;;;2.78;0.40;;;23.90;57.10;;;;;;5073200;28;20035;-82
2022/09/19 13:15:40;;;;;;;3.38;0.38;;;24.50;55.70;;;;;;5068204;28;20021;-83
2022/09/19 13:23:45;;;;;;;3.38;0.50;;;24.90;53.10;;;;;;5053287;28;20556;-85
2022/09/19 13:26:19;;;;;;;2.60;0.20;;;24.10;52.80;;;;;;5066923;28;20020;-82
2022/09/19 13:28:56;;;;;;;2.63;0.50;;;23.50;52.10;;;;;;5059176;28;20033;-84
2022/09/19 13:31:53;;;;;;;2.72;0.30;;;22.70;51.50;;;;;;5061357;28;20020;-83
2022/09/19 13:34:43;;;;;;;3.92;0.30;;;21.90;52.30;;;;;;5077460;28;20371;-87